Time;durP1;ratioP1;P1;durP2;ratioP2;P2;SDS_P1;SDS_P2;PMS_P1;PMS_P2;Temp;Humidity;BMP_temperature;BMP_pressure;BME280_temperature;BME280_humidity;BME280_pressure;Samples;Min_cycle;Max_cycle;Signal;HPM_P1;HPM_P2
2020/12/11 00:01:40;;;;;;;53.93;31.37;;;1.50;92.90;;;;;;4989215;28;20199;-83
2020/12/11 00:04:08;;;;;;;57.30;30.37;;;1.50;92.90;;;;;;4985458;28;20193;-81
2020/12/11 00:06:35;;;;;;;56.33;31.33;;;1.50;92.90;;;;;;4982714;28;20303;-83
2020/12/11 00:09:03;;;;;;;59.27;31.63;;;1.50;92.90;;;;;;4979664;28;20212;-82
2020/12/11 00:11:31;;;;;;;54.03;31.93;;;1.50;92.90;;;;;;4982967;28;20745;-82
2020/12/11 00:14:00;;;;;;;57.07;32.27;;;1.50;92.90;;;;;;4975173;28;20279;-82
2020/12/11 00:16:27;;;;;;;59.27;32.03;;;1.50;92.90;;;;;;4980064;28;20192;-82
2020/12/11 00:18:55;;;;;;;57.53;32.27;;;1.60;92.90;;;;;;4974254;28;20496;-82
2020/12/11 00:21:23;;;;;;;61.20;32.57;;;1.60;92.90;;;;;;4980606;28;20205;-83
2020/12/11 00:23:50;;;;;;;59.43;32.70;;;1.60;92.90;;;;;;4979982;28;20211;-83
2020/12/11 00:26:19;;;;;;;61.27;32.13;;;1.60;92.90;;;;;;4979319;28;20202;-83
2020/12/11 00:28:46;;;;;;;54.33;30.87;;;1.60;92.90;;;;;;4983547;28;20211;-83
2020/12/11 00:31:15;;;;;;;59.17;31.87;;;1.60;92.90;;;;;;4984568;28;20744;-83
2020/12/11 00:33:43;;;;;;;60.73;31.93;;;1.60;92.90;;;;;;4982119;28;20200;-83
2020/12/11 00:36:12;;;;;;;55.63;32.23;;;1.70;92.90;;;;;;5004643;28;20187;-83
2020/12/11 00:38:40;;;;;;;56.00;31.90;;;1.70;92.90;;;;;;4989170;28;20263;-84
2020/12/11 00:41:08;;;;;;;53.80;30.83;;;1.60;92.90;;;;;;4984437;28;20208;-81
2020/12/11 00:43:36;;;;;;;55.60;31.67;;;1.60;92.90;;;;;;4996640;28;20287;-83
2020/12/11 00:46:04;;;;;;;56.70;30.97;;;1.60;92.90;;;;;;4993031;28;20196;-84
2020/12/11 00:48:33;;;;;;;60.20;31.83;;;1.60;92.90;;;;;;5000893;28;20282;-83
2020/12/11 00:51:01;;;;;;;55.93;32.20;;;1.60;92.90;;;;;;5001000;28;20271;-84
2020/12/11 00:53:28;;;;;;;61.67;33.23;;;1.60;92.90;;;;;;4994962;28;20199;-82
2020/12/11 00:55:56;;;;;;;60.87;33.27;;;1.60;92.90;;;;;;5003459;28;20591;-83
2020/12/11 00:58:23;;;;;;;55.03;31.00;;;1.60;92.90;;;;;;4999021;28;20187;-83
2020/12/11 01:00:51;;;;;;;58.43;32.60;;;1.60;92.90;;;;;;5004280;28;20235;-80
2020/12/11 01:03:19;;;;;;;56.70;32.27;;;1.80;93.00;;;;;;5005698;28;20211;-81
2020/12/11 01:05:47;;;;;;;55.93;32.03;;;1.60;92.90;;;;;;5002264;28;20198;-85
2020/12/11 01:08:15;;;;;;;55.50;30.13;;;1.60;92.90;;;;;;5005081;28;20207;-83
2020/12/11 01:10:43;;;;;;;59.50;31.00;;;1.60;92.90;;;;;;5004079;28;20208;-85
2020/12/11 01:13:12;;;;;;;56.23;31.10;;;1.60;92.90;;;;;;5002013;28;20216;-82
2020/12/11 01:15:40;;;;;;;59.43;32.07;;;1.60;92.90;;;;;;4986384;28;20219;-83
2020/12/11 01:18:08;;;;;;;51.03;29.97;;;1.60;92.90;;;;;;4993231;28;20613;-80
2020/12/11 01:20:35;;;;;;;56.93;31.50;;;1.60;92.90;;;;;;4976497;28;20494;-81
2020/12/11 01:23:04;;;;;;;58.53;31.70;;;1.60;92.90;;;;;;4978082;28;20606;-81
2020/12/11 01:25:32;;;;;;;61.33;31.97;;;1.60;92.90;;;;;;4982189;28;20187;-82
2020/12/11 01:27:59;;;;;;;60.57;31.87;;;1.60;92.90;;;;;;4976331;28;20597;-83
2020/12/11 01:30:27;;;;;;;54.63;29.37;;;1.60;92.90;;;;;;4981122;28;20704;-82
2020/12/11 01:32:55;;;;;;;57.90;31.80;;;1.60;92.90;;;;;;4979893;28;20813;-83
2020/12/11 01:35:22;;;;;;;56.13;30.63;;;1.60;92.90;;;;;;4982505;28;20933;-82
2020/12/11 01:37:50;;;;;;;59.67;30.47;;;1.60;92.90;;;;;;4981531;28;20285;-84
2020/12/11 01:40:18;;;;;;;61.53;31.67;;;1.60;92.90;;;;;;4979176;28;20623;-82
2020/12/11 01:42:46;;;;;;;59.93;31.57;;;1.60;92.90;;;;;;4976178;28;20530;-83
2020/12/11 01:45:14;;;;;;;57.33;31.33;;;1.60;92.90;;;;;;4979551;28;20214;-83
2020/12/11 01:47:42;;;;;;;58.73;31.03;;;1.70;92.90;;;;;;4997376;28;20260;-83
2020/12/11 01:50:18;;;;;;;55.40;30.33;;;1.60;92.90;;;;;;4975379;28;20207;-83
2020/12/11 01:52:47;;;;;;;53.97;30.80;;;1.60;92.90;;;;;;4977423;28;20672;-82
2020/12/11 01:55:15;;;;;;;54.73;31.17;;;1.60;92.90;;;;;;4986778;28;20207;-83
2020/12/11 01:57:50;;;;;;;54.93;29.47;;;1.60;92.90;;;;;;4989525;28;20548;-82
2020/12/11 02:00:20;;;;;;;52.40;29.07;;;1.60;92.90;;;;;;4975401;28;20222;-82
2020/12/11 02:02:54;;;;;;;58.10;30.83;;;1.50;92.90;;;;;;4974585;28;20254;-80
2020/12/11 02:05:21;;;;;;;51.77;30.17;;;1.70;92.90;;;;;;4969880;28;20208;-81
2020/12/11 02:07:49;;;;;;;54.80;30.87;;;1.60;92.90;;;;;;4976124;28;20200;-82
2020/12/11 02:10:17;;;;;;;57.97;30.10;;;1.60;92.90;;;;;;4972534;28;20200;-82
2020/12/11 02:12:46;;;;;;;51.17;29.30;;;1.60;92.90;;;;;;4974521;28;20200;-83
2020/12/11 02:15:13;;;;;;;55.20;29.70;;;1.60;92.90;;;;;;4975587;28;20200;-82
2020/12/11 02:17:41;;;;;;;52.47;30.20;;;1.60;92.90;;;;;;4974564;28;20200;-81
2020/12/11 02:20:09;;;;;;;52.27;29.70;;;1.70;92.90;;;;;;4976269;28;20283;-83
2020/12/11 02:22:37;;;;;;;55.73;30.87;;;1.60;92.90;;;;;;4979023;28;20188;-83
2020/12/11 02:25:05;;;;;;;52.27;28.80;;;1.60;92.90;;;;;;4980487;28;20309;-82
2020/12/11 02:27:32;;;;;;;52.13;28.93;;;1.60;92.90;;;;;;5002398;28;20200;-84
2020/12/11 02:30:00;;;;;;;55.03;30.83;;;1.70;92.90;;;;;;5002382;28;20264;-84
2020/12/11 02:32:28;;;;;;;55.87;30.90;;;1.60;92.90;;;;;;5008024;28;20287;-83
2020/12/11 02:34:56;;;;;;;57.10;32.40;;;1.70;92.90;;;;;;4993278;28;20211;-83
2020/12/11 02:37:23;;;;;;;58.37;33.50;;;1.70;92.90;;;;;;4991765;28;20710;-82
2020/12/11 02:39:52;;;;;;;58.20;33.97;;;1.70;92.90;;;;;;4985686;28;20643;-83
2020/12/11 02:42:19;;;;;;;52.10;29.87;;;1.70;92.90;;;;;;4979361;28;20544;-83
2020/12/11 02:44:47;;;;;;;45.87;27.60;;;1.70;92.90;;;;;;4979919;28;20200;-82
2020/12/11 02:47:15;;;;;;;47.27;29.03;;;1.70;92.90;;;;;;4977291;28;20287;-81
2020/12/11 02:49:43;;;;;;;49.50;28.20;;;1.70;92.90;;;;;;4983491;28;20579;-82
2020/12/11 02:52:10;;;;;;;51.63;28.20;;;1.60;92.90;;;;;;4979712;28;20618;-81
2020/12/11 02:54:38;;;;;;;48.80;27.40;;;1.70;92.90;;;;;;4980922;28;20255;-81
2020/12/11 02:57:06;;;;;;;49.73;28.30;;;1.70;93.00;;;;;;4996634;28;20188;-82
2020/12/11 02:59:34;;;;;;;49.80;27.23;;;1.70;93.00;;;;;;4990510;28;20647;-83
2020/12/11 03:02:01;;;;;;;45.27;26.90;;;1.70;93.00;;;;;;4980486;28;20517;-84
2020/12/11 03:04:29;;;;;;;48.17;27.13;;;1.70;93.00;;;;;;4979163;28;20200;-83
2020/12/11 03:06:57;;;;;;;43.83;26.13;;;1.70;93.00;;;;;;4999713;28;20422;-84
2020/12/11 03:09:24;;;;;;;44.63;26.67;;;1.70;93.00;;;;;;4976718;28;20219;-83
2020/12/11 03:11:52;;;;;;;52.10;28.87;;;1.80;93.00;;;;;;4980081;28;20224;-82
2020/12/11 03:14:21;;;;;;;48.13;27.20;;;1.70;93.00;;;;;;4980362;28;20589;-83
2020/12/11 03:16:49;;;;;;;48.73;27.23;;;1.70;93.00;;;;;;4991802;28;20227;-82
2020/12/11 03:19:17;;;;;;;46.60;26.47;;;1.70;93.00;;;;;;4996468;28;20223;-82
2020/12/11 03:21:45;;;;;;;46.77;26.17;;;1.70;93.00;;;;;;4982036;28;20219;-82
2020/12/11 03:24:12;;;;;;;46.87;26.27;;;1.70;93.00;;;;;;4980493;28;20303;-84
2020/12/11 03:26:40;;;;;;;44.57;26.40;;;1.70;93.00;;;;;;4982386;28;20201;-82
2020/12/11 03:29:08;;;;;;;47.57;26.63;;;1.70;93.00;;;;;;4975194;28;20208;-81
2020/12/11 03:31:36;;;;;;;45.47;26.17;;;1.70;93.00;;;;;;4977213;28;20231;-83
2020/12/11 03:34:04;;;;;;;47.97;26.27;;;1.70;93.00;;;;;;4980240;28;20391;-84
2020/12/11 03:36:31;;;;;;;49.20;26.17;;;1.70;93.00;;;;;;4977108;28;20243;-82
2020/12/11 03:38:59;;;;;;;46.30;26.97;;;1.80;93.00;;;;;;4976547;28;20204;-82
2020/12/11 03:41:26;;;;;;;50.53;27.67;;;1.70;93.00;;;;;;4968660;28;20453;-82
2020/12/11 03:43:54;;;;;;;45.17;27.20;;;1.70;93.00;;;;;;4989053;28;20212;-82
2020/12/11 03:46:22;;;;;;;47.20;26.93;;;1.70;93.00;;;;;;4985841;28;20208;-83
2020/12/11 03:48:51;;;;;;;50.30;27.37;;;1.70;93.00;;;;;;4974765;28;20193;-83
2020/12/11 03:51:21;;;;;;;44.93;27.07;;;1.70;93.00;;;;;;4976811;28;20238;-84
2020/12/11 03:53:49;;;;;;;47.27;27.10;;;1.70;93.00;;;;;;4992074;28;20229;-82
2020/12/11 03:56:19;;;;;;;49.00;28.73;;;1.70;93.00;;;;;;4996748;28;20298;-84
2020/12/11 03:58:47;;;;;;;50.63;27.57;;;1.80;93.00;;;;;;5003193;28;20196;-83
2020/12/11 04:01:16;;;;;;;52.10;27.47;;;1.80;93.00;;;;;;4985549;28;20192;-81
2020/12/11 04:03:44;;;;;;;46.50;27.37;;;1.80;93.00;;;;;;4981425;28;20214;-83
2020/12/11 04:06:14;;;;;;;52.70;28.77;;;1.80;93.00;;;;;;4980312;28;20204;-83
2020/12/11 04:08:43;;;;;;;46.90;26.33;;;1.80;93.00;;;;;;5001783;28;20188;-82
2020/12/11 04:11:17;;;;;;;50.97;28.13;;;1.70;93.00;;;;;;4985550;28;20224;-83
2020/12/11 04:13:44;;;;;;;51.53;28.00;;;1.90;93.00;;;;;;4978021;28;20650;-83
2020/12/11 04:16:12;;;;;;;53.40;28.03;;;1.80;93.00;;;;;;4979565;28;20196;-82
2020/12/11 04:18:41;;;;;;;56.23;27.80;;;1.80;93.00;;;;;;4980691;28;20247;-81
2020/12/11 04:21:13;;;;;;;52.03;29.20;;;1.80;93.00;;;;;;4982361;28;20200;-83
2020/12/11 04:23:45;;;;;;;53.53;28.10;;;1.80;93.00;;;;;;4981586;28;20849;-80
2020/12/11 04:26:12;;;;;;;56.10;29.17;;;1.80;93.00;;;;;;4978181;28;20291;-85
2020/12/11 04:28:40;;;;;;;51.13;27.93;;;1.80;93.00;;;;;;4980537;28;20200;-81
2020/12/11 04:31:08;;;;;;;48.37;27.07;;;1.80;93.00;;;;;;4980300;28;20556;-83
2020/12/11 04:33:35;;;;;;;52.57;27.67;;;1.80;93.00;;;;;;4980972;28;20896;-83
2020/12/11 04:36:03;;;;;;;54.53;28.23;;;1.90;93.00;;;;;;4978030;28;20204;-83
2020/12/11 04:38:31;;;;;;;54.57;28.67;;;1.80;93.00;;;;;;4974888;28;20207;-81
2020/12/11 04:41:01;;;;;;;54.87;28.03;;;1.80;93.00;;;;;;4977036;28;20208;-84
2020/12/11 04:43:30;;;;;;;54.00;27.87;;;1.90;93.00;;;;;;4967962;28;20298;-82
2020/12/11 04:45:57;;;;;;;54.10;28.90;;;1.80;93.00;;;;;;4978519;28;20232;-82
2020/12/11 04:48:26;;;;;;;58.00;28.23;;;1.80;93.10;;;;;;4977459;28;20263;-83
2020/12/11 04:51:09;;;;;;;54.40;27.93;;;1.80;93.00;;;;;;4989447;28;20220;-83
2020/12/11 04:53:38;;;;;;;51.73;28.73;;;1.80;93.00;;;;;;4991667;28;20216;-82
2020/12/11 04:56:06;;;;;;;58.87;29.50;;;1.80;93.00;;;;;;5005461;28;20208;-82
2020/12/11 04:58:35;;;;;;;59.53;29.57;;;1.80;93.00;;;;;;5004441;28;20331;-81
2020/12/11 05:01:04;;;;;;;54.43;29.33;;;2.00;93.00;;;;;;5005041;28;20215;-82
2020/12/11 05:03:33;;;;;;;58.70;29.97;;;1.80;93.00;;;;;;4985963;28;20200;-81
2020/12/11 05:06:01;;;;;;;56.40;29.17;;;1.80;93.00;;;;;;4982191;28;20211;-84
2020/12/11 05:08:28;;;;;;;54.33;28.60;;;1.80;93.00;;;;;;5000016;28;20195;-82
2020/12/11 05:11:00;;;;;;;56.97;29.73;;;1.90;93.00;;;;;;5004596;28;20398;-81
2020/12/11 05:13:27;;;;;;;62.60;29.60;;;1.80;93.00;;;;;;4993834;28;20196;-83
2020/12/11 05:16:09;;;;;;;58.27;29.40;;;1.90;93.00;;;;;;5000511;28;20485;-80
2020/12/11 05:18:38;;;;;;;59.63;30.20;;;1.90;93.00;;;;;;4992451;28;20199;-82
2020/12/11 05:21:16;;;;;;;61.87;30.90;;;1.90;93.00;;;;;;5005124;28;20196;-82
2020/12/11 05:24:00;;;;;;;58.33;29.83;;;1.90;93.00;;;;;;5002455;28;20301;-82
2020/12/11 05:26:31;;;;;;;66.17;31.50;;;1.80;93.00;;;;;;4994379;28;20395;-84
2020/12/11 05:28:59;;;;;;;60.30;30.93;;;1.90;93.00;;;;;;4994236;28;20278;-82
2020/12/11 05:31:27;;;;;;;62.77;30.53;;;1.90;93.00;;;;;;4993463;28;20374;-82
2020/12/11 05:34:09;;;;;;;58.40;30.60;;;1.90;93.00;;;;;;5001701;28;20207;-81
2020/12/11 05:36:48;;;;;;;59.07;30.07;;;1.90;93.00;;;;;;4996464;28;20207;-82
2020/12/11 05:39:29;;;;;;;61.97;30.00;;;2.00;93.10;;;;;;4977888;28;20292;-80
2020/12/11 05:41:59;;;;;;;61.37;31.23;;;1.90;93.00;;;;;;4961923;28;20228;-84
2020/12/11 05:44:31;;;;;;;60.50;29.20;;;2.00;93.10;;;;;;4976676;28;20508;-83
2020/12/11 05:47:17;;;;;;;61.10;31.10;;;1.90;93.00;;;;;;4975790;28;20207;-83
2020/12/11 05:49:45;;;;;;;61.77;29.77;;;2.00;93.10;;;;;;4962069;28;20293;-81
2020/12/11 05:52:14;;;;;;;65.07;29.33;;;1.90;93.00;;;;;;4982808;28;20229;-83
2020/12/11 05:54:44;;;;;;;58.77;29.27;;;1.90;93.00;;;;;;4972241;28;20226;-83
2020/12/11 05:57:15;;;;;;;56.87;30.67;;;1.90;93.00;;;;;;4967251;28;20222;-82
2020/12/11 05:59:44;;;;;;;58.83;30.47;;;1.90;93.00;;;;;;4971419;28;20208;-81
2020/12/11 06:02:12;;;;;;;58.83;28.97;;;1.90;93.00;;;;;;4973214;28;20212;-83
2020/12/11 06:04:41;;;;;;;62.10;29.47;;;1.90;93.00;;;;;;4973434;28;20200;-83
2020/12/11 06:07:15;;;;;;;58.30;29.63;;;2.00;93.10;;;;;;4978957;28;20204;-82
2020/12/11 06:09:44;;;;;;;58.47;30.17;;;1.90;93.00;;;;;;4972836;28;20215;-81
2020/12/11 06:12:13;;;;;;;64.33;31.07;;;1.90;93.00;;;;;;4976159;28;20228;-80
2020/12/11 06:14:54;;;;;;;61.57;29.97;;;1.90;93.00;;;;;;4980246;28;20275;-80
2020/12/11 06:17:27;;;;;;;60.97;30.40;;;2.00;93.10;;;;;;4983821;28;20534;-82
2020/12/11 06:19:56;;;;;;;56.33;28.47;;;1.90;93.00;;;;;;4972533;28;20206;-82
2020/12/11 06:22:24;;;;;;;63.27;31.00;;;2.00;93.10;;;;;;4974450;28;20295;-83
2020/12/11 06:24:52;;;;;;;59.70;29.67;;;2.00;93.10;;;;;;4978922;28;20283;-82
2020/12/11 06:27:31;;;;;;;61.20;29.87;;;2.00;93.10;;;;;;4972772;28;20224;-83
2020/12/11 06:30:19;;;;;;;63.30;29.57;;;2.00;93.10;;;;;;4984005;28;20211;-83
2020/12/11 06:32:48;;;;;;;54.33;28.33;;;1.90;93.00;;;;;;4990039;28;20223;-82
2020/12/11 06:35:16;;;;;;;62.77;29.47;;;2.00;93.10;;;;;;4978341;28;20212;-81
2020/12/11 06:37:43;;;;;;;68.77;30.47;;;2.00;93.10;;;;;;4978117;28;20228;-82
2020/12/11 06:40:11;;;;;;;60.70;29.87;;;2.00;93.10;;;;;;4980514;28;20654;-82
2020/12/11 06:42:43;;;;;;;65.47;30.87;;;2.00;93.10;;;;;;4983377;28;20212;-83
2020/12/11 06:45:22;;;;;;;62.13;29.33;;;2.00;93.10;;;;;;4983943;28;20223;-80
2020/12/11 06:47:52;;;;;;;57.73;30.70;;;2.00;93.10;;;;;;4981895;28;20212;-82
2020/12/11 06:50:21;;;;;;;64.17;31.43;;;2.10;93.10;;;;;;4997441;28;20491;-82
2020/12/11 06:52:51;;;;;;;68.57;32.50;;;2.00;93.10;;;;;;4988046;28;20259;-81
2020/12/11 06:55:21;;;;;;;72.60;33.67;;;2.00;93.10;;;;;;4987964;28;20209;-82
2020/12/11 06:57:50;;;;;;;61.67;31.77;;;1.90;93.00;;;;;;4967186;28;20213;-80
2020/12/11 07:00:37;;;;;;;62.00;30.60;;;2.00;93.10;;;;;;4977788;28;20208;-81
2020/12/11 07:03:32;;;;;;;66.27;31.33;;;2.00;93.10;;;;;;4966965;28;20478;-81
2020/12/11 07:06:10;;;;;;;66.67;32.40;;;2.00;93.10;;;;;;4940649;28;20242;-82
2020/12/11 07:08:38;;;;;;;64.77;31.20;;;2.00;93.10;;;;;;4975372;28;20604;-82
2020/12/11 07:11:14;;;;;;;72.27;32.17;;;2.00;93.10;;;;;;4965418;28;20250;-81
2020/12/11 07:13:51;;;;;;;69.63;31.43;;;2.00;93.10;;;;;;4983334;28;20239;-83
2020/12/11 07:16:21;;;;;;;67.67;30.73;;;2.00;93.10;;;;;;4972941;28;20892;-83
2020/12/11 07:18:49;;;;;;;65.33;30.40;;;2.10;93.10;;;;;;4978284;28;20212;-82
2020/12/11 07:21:20;;;;;;;71.10;32.27;;;2.10;93.10;;;;;;4977562;28;20412;-82
2020/12/11 07:23:49;;;;;;;65.63;30.63;;;2.10;93.10;;;;;;4976225;28;20231;-83
2020/12/11 07:26:18;;;;;;;67.73;32.00;;;2.20;93.10;;;;;;4973719;28;20212;-82
2020/12/11 07:28:48;;;;;;;64.47;30.93;;;2.10;93.10;;;;;;4980855;28;20208;-82
2020/12/11 07:31:21;;;;;;;70.20;30.13;;;2.10;93.10;;;;;;4987769;28;20232;-83
2020/12/11 07:33:50;;;;;;;68.20;31.03;;;2.10;93.10;;;;;;4996887;28;20207;-83
2020/12/11 07:36:22;;;;;;;65.53;31.50;;;2.10;93.10;;;;;;4995895;28;20205;-82
2020/12/11 07:38:50;;;;;;;65.43;31.67;;;2.10;93.10;;;;;;4985990;28;20205;-82
2020/12/11 07:41:18;;;;;;;62.10;30.87;;;2.10;93.10;;;;;;4984112;28;20425;-82
2020/12/11 07:43:47;;;;;;;65.13;30.70;;;2.20;93.10;;;;;;4996964;28;20208;-82
2020/12/11 07:46:23;;;;;;;59.37;29.90;;;2.20;93.10;;;;;;4982802;28;20599;-82
2020/12/11 07:48:51;;;;;;;62.17;29.07;;;2.20;93.10;;;;;;4975132;28;20211;-83
2020/12/11 07:51:22;;;;;;;58.43;29.53;;;2.30;93.10;;;;;;4972731;28;20264;-84
2020/12/11 07:53:53;;;;;;;61.87;30.07;;;2.30;93.10;;;;;;4975012;28;20231;-82
2020/12/11 07:56:28;;;;;;;63.00;29.60;;;2.30;93.10;;;;;;4979273;28;20246;-82
2020/12/11 07:58:55;;;;;;;60.03;29.20;;;2.30;93.10;;;;;;4971461;28;20223;-83
2020/12/11 08:01:24;;;;;;;63.70;29.87;;;2.30;93.10;;;;;;4971613;28;20671;-82
2020/12/11 08:03:53;;;;;;;56.23;28.37;;;2.30;93.10;;;;;;4975085;28;20317;-84
2020/12/11 08:06:21;;;;;;;62.73;29.87;;;2.30;93.10;;;;;;4968715;28;20200;-84
2020/12/11 08:08:49;;;;;;;58.73;28.10;;;2.40;93.10;;;;;;4977985;28;20264;-81
2020/12/11 08:11:24;;;;;;;58.87;28.37;;;2.30;93.10;;;;;;4980268;28;20264;-82
2020/12/11 08:20:43;;;;;;;57.30;27.90;;;2.40;93.10;;;;;;4998467;28;20476;-83
2020/12/11 08:23:22;;;;;;;58.67;28.30;;;2.40;93.10;;;;;;4984788;28;20199;-84
2020/12/11 08:26:16;;;;;;;59.73;29.00;;;2.30;93.00;;;;;;4994234;28;20207;-84
2020/12/11 08:28:48;;;;;;;61.73;30.07;;;2.40;93.10;;;;;;4990831;28;20209;-84
2020/12/11 08:31:21;;;;;;;58.03;27.37;;;2.50;93.00;;;;;;4986200;28;20237;-83
2020/12/11 08:34:02;;;;;;;57.60;28.43;;;2.40;93.00;;;;;;4989115;28;20242;-83
2020/12/11 08:36:32;;;;;;;60.87;30.43;;;2.50;93.00;;;;;;4985084;28;20198;-84
2020/12/11 08:39:11;;;;;;;62.50;28.07;;;2.50;93.00;;;;;;4972455;28;20255;-84
2020/12/11 08:41:43;;;;;;;62.57;29.13;;;2.50;93.00;;;;;;4968363;28;20201;-83
2020/12/11 08:44:28;;;;;;;60.57;28.87;;;2.50;93.00;;;;;;4969455;28;20212;-83
2020/12/11 08:47:25;;;;;;;60.23;28.47;;;2.50;93.00;;;;;;4969895;28;20266;-84
2020/12/11 08:52:37;;;;;;;72.23;30.53;;;2.60;93.00;;;;;;4989944;28;20284;-84
2020/12/11 08:55:05;;;;;;;71.30;30.23;;;2.60;92.90;;;;;;4973225;28;20264;-82
2020/12/11 08:57:34;;;;;;;67.50;30.20;;;2.60;92.90;;;;;;4967175;28;20375;-82
2020/12/11 09:00:03;;;;;;;69.83;30.70;;;2.60;92.90;;;;;;4981544;28;20210;-84
2020/12/11 09:02:32;;;;;;;74.73;32.60;;;2.60;92.90;;;;;;4974230;28;20561;-85
2020/12/11 09:05:05;;;;;;;73.53;31.97;;;2.60;92.80;;;;;;4978536;28;20804;-84
2020/12/11 09:07:39;;;;;;;75.63;32.33;;;2.60;92.80;;;;;;4972997;28;20233;-81
2020/12/11 09:10:07;;;;;;;73.73;32.40;;;2.60;92.90;;;;;;4984664;28;20231;-84
2020/12/11 09:12:36;;;;;;;78.20;31.70;;;2.60;92.80;;;;;;4966865;28;20222;-83
2020/12/11 09:15:09;;;;;;;74.57;31.60;;;2.60;92.90;;;;;;4935140;28;20216;-84
2020/12/11 09:17:37;;;;;;;78.77;33.77;;;2.80;93.00;;;;;;4886138;28;20471;-81
2020/12/11 09:20:06;;;;;;;72.63;32.77;;;3.00;92.90;;;;;;4892451;28;20829;-84
2020/12/11 09:22:35;;;;;;;78.80;32.50;;;2.80;92.90;;;;;;4888343;28;20677;-85
2020/12/11 09:25:05;;;;;;;74.20;32.77;;;2.70;92.80;;;;;;4905569;28;20264;-83
2020/12/11 09:27:36;;;;;;;71.33;31.03;;;2.80;92.80;;;;;;4955817;28;20303;-83
2020/12/11 09:30:14;;;;;;;73.40;31.20;;;2.80;92.80;;;;;;4978925;28;20209;-82
2020/12/11 09:32:52;;;;;;;76.70;30.47;;;2.80;92.80;;;;;;4967139;28;20874;-83
2020/12/11 09:35:27;;;;;;;81.23;31.03;;;2.90;92.80;;;;;;4975271;28;20223;-85
2020/12/11 09:37:56;;;;;;;68.57;31.20;;;2.90;92.80;;;;;;4970091;28;20965;-81
2020/12/11 09:40:34;;;;;;;74.90;31.13;;;2.90;92.60;;;;;;4969056;28;20305;-82
2020/12/11 09:45:52;;;;;;;70.53;29.77;;;3.00;92.70;;;;;;4989948;28;20207;-84
2020/12/11 09:48:37;;;;;;;80.83;30.73;;;3.10;92.70;;;;;;4994780;28;20297;-84
2020/12/11 09:51:18;;;;;;;73.37;28.40;;;3.00;92.50;;;;;;4986330;28;20626;-82
2020/12/11 09:56:35;;;;;;;67.07;28.57;;;3.00;92.50;;;;;;4970105;28;20225;-82
2020/12/11 09:59:05;;;;;;;68.63;28.43;;;3.00;92.50;;;;;;4995111;28;20206;-81
2020/12/11 10:01:51;;;;;;;78.73;31.13;;;3.20;92.60;;;;;;4984824;28;20459;-82
2020/12/11 10:04:19;;;;;;;70.27;30.50;;;3.10;92.70;;;;;;4985604;28;20416;-83
2020/12/11 10:06:47;;;;;;;70.77;31.10;;;3.10;92.60;;;;;;4982419;28;20218;-82
2020/12/11 10:09:14;;;;;;;68.97;29.57;;;3.10;92.50;;;;;;4973136;28;20618;-81
2020/12/11 10:11:49;;;;;;;69.97;31.23;;;3.10;92.60;;;;;;4984360;28;20498;-84
2020/12/11 10:14:24;;;;;;;71.63;30.60;;;3.00;92.60;;;;;;4985883;28;20247;-84
2020/12/11 10:16:53;;;;;;;73.67;31.27;;;3.00;92.60;;;;;;4985722;28;20205;-82
2020/12/11 10:19:22;;;;;;;79.63;33.10;;;2.90;92.50;;;;;;4993032;28;20214;-81
2020/12/11 10:21:51;;;;;;;84.17;32.60;;;3.00;92.50;;;;;;4992459;28;20570;-82
2020/12/11 10:24:20;;;;;;;76.50;29.40;;;3.00;92.50;;;;;;4985621;28;20208;-84
2020/12/11 10:26:49;;;;;;;73.93;31.00;;;3.00;92.60;;;;;;4974483;28;20218;-81
2020/12/11 10:29:17;;;;;;;70.40;28.90;;;2.90;92.50;;;;;;4996032;28;20568;-81
2020/12/11 10:31:45;;;;;;;79.30;31.13;;;2.90;92.60;;;;;;4991420;28;20289;-80
2020/12/11 10:34:14;;;;;;;74.80;32.17;;;2.90;92.70;;;;;;4988412;28;20241;-81
2020/12/11 10:36:44;;;;;;;70.90;30.73;;;3.00;92.70;;;;;;4981504;28;20212;-81
2020/12/11 10:39:13;;;;;;;82.37;30.63;;;3.00;92.70;;;;;;4982595;28;20289;-81
2020/12/11 10:41:41;;;;;;;72.00;32.60;;;3.00;92.70;;;;;;4980195;28;20197;-83
2020/12/11 10:44:10;;;;;;;69.03;30.50;;;3.00;92.70;;;;;;4983612;28;20310;-80
2020/12/11 10:46:38;;;;;;;70.60;30.87;;;3.10;92.60;;;;;;4981552;28;20333;-82
2020/12/11 10:49:06;;;;;;;73.23;31.90;;;3.00;92.50;;;;;;4989049;28;20194;-82
2020/12/11 10:51:35;;;;;;;65.73;30.97;;;2.90;92.50;;;;;;4984833;28;20218;-83
2020/12/11 10:54:03;;;;;;;65.60;27.93;;;3.00;92.50;;;;;;4992685;28;20222;-81
2020/12/11 10:56:31;;;;;;;64.07;28.70;;;2.90;92.50;;;;;;4990792;28;20195;-83
2020/12/11 10:58:59;;;;;;;61.43;29.80;;;2.90;92.60;;;;;;4982634;28;20210;-83
2020/12/11 11:01:29;;;;;;;67.23;29.33;;;2.90;92.70;;;;;;4983611;28;20197;-81
2020/12/11 11:03:57;;;;;;;65.00;29.00;;;2.90;92.70;;;;;;4974072;28;20276;-79
2020/12/11 11:06:28;;;;;;;60.30;29.27;;;3.00;92.70;;;;;;4984840;28;20352;-81
2020/12/11 11:09:09;;;;;;;65.37;29.93;;;2.90;92.60;;;;;;4990747;28;20406;-81
2020/12/11 11:11:39;;;;;;;57.37;29.10;;;3.00;92.60;;;;;;4993996;28;20283;-84
2020/12/11 11:17:26;;;;;;;65.57;31.17;;;3.00;92.60;;;;;;4989178;28;20198;-81
2020/12/11 11:20:00;;;;;;;65.90;29.43;;;3.00;92.60;;;;;;4992791;28;20213;-80
2020/12/11 11:22:42;;;;;;;62.93;28.90;;;3.00;92.70;;;;;;4991819;28;20461;-82
2020/12/11 11:27:54;;;;;;;57.37;28.10;;;3.00;92.80;;;;;;4991918;28;20194;-80
2020/12/11 11:30:23;;;;;;;54.90;28.30;;;3.10;92.80;;;;;;4994714;28;20327;-81
2020/12/11 11:32:52;;;;;;;58.53;26.57;;;3.00;92.70;;;;;;4994495;28;20238;-85
2020/12/11 11:35:22;;;;;;;62.47;28.80;;;3.00;92.70;;;;;;4998607;28;20201;-84
2020/12/11 11:37:56;;;;;;;55.87;27.67;;;2.90;92.70;;;;;;5055576;23;20238;-82
2020/12/11 11:40:25;;;;;;;59.97;27.23;;;3.00;92.70;;;;;;4969739;28;20218;-82
2020/12/11 11:42:56;;;;;;;58.70;27.63;;;3.00;92.80;;;;;;4959187;28;20225;-82
2020/12/11 11:45:26;;;;;;;53.00;27.63;;;2.90;92.80;;;;;;4969021;28;21554;-82
2020/12/11 11:47:56;;;;;;;52.73;26.13;;;3.00;92.80;;;;;;4958118;28;20197;-83
2020/12/11 11:50:34;;;;;;;54.00;26.03;;;3.00;92.90;;;;;;4957512;28;20787;-82
2020/12/11 11:53:03;;;;;;;51.83;26.93;;;2.90;92.80;;;;;;4955088;28;20233;-82
2020/12/11 11:55:31;;;;;;;50.37;25.93;;;2.90;92.80;;;;;;4960833;28;20411;-81
2020/12/11 11:57:58;;;;;;;50.37;25.43;;;2.90;92.80;;;;;;4959252;28;20219;-82
2020/12/11 12:00:26;;;;;;;53.17;25.53;;;2.90;92.80;;;;;;4952019;28;20282;-82
2020/12/11 12:02:55;;;;;;;50.70;25.33;;;3.00;92.80;;;;;;4957958;28;20209;-84
2020/12/11 12:05:23;;;;;;;44.03;24.40;;;3.00;92.80;;;;;;4950391;28;20501;-81
2020/12/11 12:07:51;;;;;;;49.70;25.53;;;3.00;92.80;;;;;;4948720;28;20205;-81
2020/12/11 12:10:22;;;;;;;45.80;24.30;;;3.10;92.80;;;;;;4946719;28;20636;-81
2020/12/11 12:12:54;;;;;;;43.13;23.67;;;3.00;92.80;;;;;;4950246;28;20227;-81
2020/12/11 12:15:24;;;;;;;45.23;24.43;;;3.10;92.70;;;;;;4940809;28;20646;-81
2020/12/11 12:17:57;;;;;;;51.30;24.87;;;3.00;92.70;;;;;;4945748;28;20249;-82
2020/12/11 12:20:34;;;;;;;46.43;24.83;;;3.00;92.70;;;;;;4942561;28;20240;-81
2020/12/11 12:24:07;;;;;;;44.93;24.63;;;3.10;92.70;;;;;;4956059;28;20212;-82
2020/12/11 12:29:11;;;;;;;44.63;23.47;;;3.20;92.70;;;;;;4940507;28;20279;-83
2020/12/11 12:31:44;;;;;;;44.40;24.40;;;3.10;92.70;;;;;;4944232;28;20759;-79
2020/12/11 12:34:35;;;;;;;45.57;25.40;;;3.10;92.70;;;;;;4947538;28;20263;-82
2020/12/11 12:37:22;;;;;;;47.97;24.33;;;3.10;92.70;;;;;;4968305;28;20208;-80
2020/12/11 12:40:21;;;;;;;42.63;22.90;;;3.10;92.70;;;;;;4970941;28;20259;-78
2020/12/11 12:45:34;;;;;;;44.87;25.00;;;3.00;92.70;;;;;;4926007;28;20231;-82
2020/12/11 12:48:03;;;;;;;44.20;23.60;;;3.10;92.70;;;;;;4934161;28;20218;-82
2020/12/11 12:50:31;;;;;;;46.10;23.90;;;3.00;92.80;;;;;;4933879;28;20701;-81
2020/12/11 12:53:00;;;;;;;45.97;24.23;;;3.10;92.80;;;;;;4936259;28;20230;-81
2020/12/11 12:55:40;;;;;;;44.17;24.27;;;3.10;92.80;;;;;;4933524;28;20267;-81
2020/12/11 12:58:11;;;;;;;43.57;23.87;;;3.00;92.80;;;;;;4938855;28;20302;-80
2020/12/11 13:00:57;;;;;;;46.33;23.27;;;3.00;92.80;;;;;;4926380;28;20203;-81
2020/12/11 13:06:16;;;;;;;53.13;24.90;;;3.00;92.80;;;;;;4933294;28;20225;-78
2020/12/11 13:08:45;;;;;;;51.23;25.73;;;2.90;92.80;;;;;;4942808;28;20364;-81
2020/12/11 13:11:13;;;;;;;47.83;24.07;;;2.90;92.80;;;;;;4938038;28;20204;-80
2020/12/11 13:13:41;;;;;;;51.90;24.90;;;2.90;92.90;;;;;;4934084;28;20268;-80
2020/12/11 13:16:09;;;;;;;51.43;26.67;;;2.90;92.90;;;;;;4945778;28;20206;-81
2020/12/11 13:18:37;;;;;;;53.27;25.53;;;3.00;93.00;;;;;;4943569;28;20206;-81
2020/12/11 13:21:09;;;;;;;49.77;24.77;;;2.90;92.90;;;;;;4948763;28;20397;-84
2020/12/11 13:26:33;;;;;;;52.07;24.77;;;2.90;93.00;;;;;;4950248;28;20241;-80